createdAt,value
2016-04-07T00:00:27.682Z,22.91
2016-04-07T00:01:27.699Z,22.94
2016-04-07T00:02:27.702Z,22.97
2016-04-07T00:03:27.689Z,22.91
2016-04-07T00:04:27.708Z,23
2016-04-07T00:05:27.710Z,22.92
2016-04-07T00:06:27.713Z,22.97
2016-04-07T00:07:27.731Z,22.94
2016-04-07T00:08:27.766Z,22.91
2016-04-07T00:09:27.736Z,22.96
2016-04-07T00:10:27.739Z,22.92
2016-04-07T00:11:27.742Z,22.96
2016-04-07T00:12:27.745Z,22.94
2016-04-07T00:13:27.747Z,22.96
2016-04-07T00:14:27.766Z,22.94
2016-04-07T00:15:27.768Z,22.92
2016-04-07T00:16:27.811Z,22.94
2016-04-07T00:17:27.842Z,22.92
2016-04-07T00:18:27.905Z,22.96
2016-04-07T00:19:27.967Z,22.91
2016-04-07T00:20:27.999Z,22.97
2016-04-07T00:21:28.030Z,22.96
2016-04-07T00:22:28.064Z,22.96
2016-04-07T00:23:28.145Z,22.92
2016-04-07T00:24:28.116Z,22.96
2016-04-07T00:25:28.119Z,22.96
2016-04-07T00:26:28.163Z,22.94
2016-04-07T00:27:28.156Z,22.96
2016-04-07T00:28:28.164Z,22.89
2016-04-07T00:29:28.189Z,22.89
2016-04-07T00:30:28.212Z,22.91
2016-04-07T00:31:28.219Z,22.86
2016-04-07T00:32:28.208Z,22.97
2016-04-07T00:33:28.228Z,22.89
2016-04-07T00:34:28.232Z,22.92
2016-04-07T00:35:28.237Z,22.97
2016-04-07T00:36:28.272Z,22.88
2016-04-07T00:37:28.261Z,22.89
2016-04-07T00:38:28.326Z,22.91
2016-04-07T00:39:28.283Z,22.92
2016-04-07T00:40:28.286Z,22.91
2016-04-07T00:41:28.290Z,22.91
2016-04-07T00:42:28.292Z,22.88
2016-04-07T00:43:28.296Z,22.89
2016-04-07T00:44:28.299Z,22.97
2016-04-07T00:45:28.301Z,22.94
2016-04-07T00:46:28.305Z,22.86
2016-04-07T00:47:28.323Z,22.91
2016-04-07T00:48:28.325Z,22.89
2016-04-07T00:49:28.328Z,22.96
2016-04-07T00:50:28.347Z,22.89
2016-04-07T00:51:28.350Z,22.92
2016-04-07T00:52:28.367Z,22.92
2016-04-07T00:53:28.480Z,22.92
2016-04-07T00:54:28.373Z,22.92
2016-04-07T00:55:28.376Z,22.89
2016-04-07T00:56:28.378Z,22.92
2016-04-07T00:57:28.381Z,22.92
2016-04-07T00:58:28.384Z,22.91
2016-04-07T00:59:28.402Z,22.89
2016-04-07T01:00:28.405Z,22.89
2016-04-07T01:01:28.408Z,22.92
2016-04-07T01:02:28.426Z,22.89
2016-04-07T01:03:28.428Z,22.91
2016-04-07T01:04:28.431Z,22.92
2016-04-07T01:05:28.450Z,22.88
2016-04-07T01:06:28.437Z,22.91
2016-04-07T01:07:28.486Z,22.91
2016-04-07T01:08:28.489Z,22.92
2016-04-07T01:09:28.461Z,22.91
2016-04-07T01:10:28.479Z,22.92
2016-04-07T01:11:28.482Z,22.92
2016-04-07T01:12:28.500Z,22.92
2016-04-07T01:13:28.502Z,22.86
2016-04-07T01:14:28.490Z,22.89
2016-04-07T01:15:28.508Z,22.92
2016-04-07T01:16:28.510Z,22.92
2016-04-07T01:17:28.512Z,22.94
2016-04-07T01:18:28.515Z,22.88
2016-04-07T01:19:28.518Z,22.94
2016-04-07T01:20:28.537Z,22.88
2016-04-07T01:21:28.540Z,22.89
2016-04-07T01:22:28.558Z,22.91
2016-04-07T01:23:28.826Z,22.88
2016-04-07T01:24:28.563Z,22.92
2016-04-07T01:25:28.581Z,22.89
2016-04-07T01:26:28.569Z,22.82
2016-04-07T01:27:28.587Z,22.92
2016-04-07T01:28:28.589Z,22.94
2016-04-07T01:29:28.280Z,22.84
2016-04-07T01:30:28.611Z,22.88
2016-04-07T01:31:28.613Z,22.92
2016-04-07T01:32:28.616Z,22.85
2016-04-07T01:33:28.619Z,22.92
2016-04-07T01:34:28.621Z,22.88
2016-04-07T01:35:28.639Z,22.92
2016-04-07T01:36:28.502Z,22.91
2016-04-07T01:37:28.645Z,22.84
2016-04-07T01:38:28.648Z,22.84
2016-04-07T01:39:28.666Z,22.82
2016-04-07T01:40:28.669Z,22.82
2016-04-07T01:41:28.671Z,22.79
2016-04-07T01:42:28.705Z,22.89
2016-04-07T01:43:28.693Z,22.84
2016-04-07T01:44:28.680Z,22.92
2016-04-07T01:45:28.713Z,22.88
2016-04-07T01:46:28.716Z,22.92
2016-04-07T01:47:28.703Z,22.89
2016-04-07T01:48:28.721Z,22.81
2016-04-07T01:49:28.724Z,22.82
2016-04-07T01:50:28.743Z,22.82
2016-04-07T01:51:28.745Z,22.84
2016-04-07T01:52:28.748Z,22.85
2016-04-07T01:53:28.751Z,22.91
2016-04-07T01:54:28.769Z,22.88
2016-04-07T01:55:28.756Z,22.85
2016-04-07T01:56:28.775Z,22.79
2016-04-07T01:57:28.777Z,22.84
2016-04-07T01:58:28.780Z,22.86
2016-04-07T01:59:28.782Z,22.79
2016-04-07T02:00:28.785Z,22.81
2016-04-07T02:01:28.803Z,22.88
2016-04-07T02:02:28.806Z,22.85
2016-04-07T02:03:28.808Z,22.86
2016-04-07T02:04:28.827Z,22.86
2016-04-07T02:05:28.830Z,22.86
2016-04-07T02:06:28.832Z,22.85
2016-04-07T02:07:28.850Z,22.84
2016-04-07T02:08:28.838Z,22.82
2016-04-07T02:09:28.856Z,22.81
2016-04-07T02:10:28.859Z,22.84
2016-04-07T02:11:28.861Z,22.86
2016-04-07T02:12:28.879Z,22.85
2016-04-07T02:13:28.727Z,22.86
2016-04-07T02:14:28.901Z,22.82
2016-04-07T02:15:28.888Z,22.84
2016-04-07T02:16:28.907Z,22.85
2016-04-07T02:17:28.909Z,22.85
2016-04-07T02:18:28.912Z,22.86
2016-04-07T02:19:28.915Z,22.79
2016-04-07T02:20:28.917Z,22.82
2016-04-07T02:21:28.920Z,22.81
2016-04-07T02:22:28.923Z,22.79
2016-04-07T02:23:28.940Z,22.81
2016-04-07T02:24:28.943Z,22.85
2016-04-07T02:25:28.946Z,22.76
2016-04-07T02:26:28.965Z,22.81
2016-04-07T02:27:28.811Z,22.81
2016-04-07T02:28:28.970Z,22.79
2016-04-07T02:29:28.989Z,22.82
2016-04-07T02:30:28.992Z,22.78
2016-04-07T02:31:28.994Z,22.78
2016-04-07T02:32:28.996Z,22.75
2016-04-07T02:33:28.999Z,22.79
2016-04-07T02:34:29.002Z,22.78
2016-04-07T02:35:29.020Z,22.78
2016-04-07T02:36:29.023Z,22.7
2016-04-07T02:37:29.041Z,22.84
2016-04-07T02:38:29.043Z,22.79
2016-04-07T02:39:29.061Z,22.81
2016-04-07T02:40:29.049Z,22.81
2016-04-07T02:41:29.082Z,22.81
2016-04-07T02:42:29.085Z,22.73
2016-04-07T02:43:29.072Z,22.7
2016-04-07T02:44:29.075Z,22.66
2016-04-07T02:45:29.093Z,22.73
2016-04-07T02:46:29.096Z,22.7
2016-04-07T02:47:29.083Z,22.71
2016-04-07T02:48:29.102Z,22.73
2016-04-07T02:49:29.104Z,22.73
2016-04-07T02:50:29.123Z,22.71
2016-04-07T02:51:29.126Z,22.69
2016-04-07T02:52:29.143Z,22.81
2016-04-07T02:53:29.131Z,22.76
2016-04-07T02:54:29.165Z,22.7
2016-04-07T02:55:29.152Z,22.7
2016-04-07T02:56:29.154Z,22.78
2016-04-07T02:57:29.173Z,22.76
2016-04-07T02:58:29.175Z,22.81
2016-04-07T02:59:29.162Z,22.7
2016-04-07T03:00:29.181Z,22.69
2016-04-07T03:01:29.184Z,22.76
2016-04-07T03:02:29.202Z,22.7
2016-04-07T03:03:29.205Z,22.71
2016-04-07T03:04:29.208Z,22.75
2016-04-07T03:05:29.226Z,22.7
2016-04-07T03:06:29.213Z,22.76
2016-04-07T03:07:29.216Z,22.69
2016-04-07T03:08:29.234Z,22.76
2016-04-07T03:09:29.236Z,22.73
2016-04-07T03:10:29.239Z,22.76
2016-04-07T03:11:29.258Z,22.75
2016-04-07T03:12:29.245Z,22.69
2016-04-07T03:13:29.277Z,22.75
2016-04-07T03:14:29.280Z,22.73
2016-04-07T03:15:29.283Z,22.76
2016-04-07T03:16:29.286Z,22.7
2016-04-07T03:17:29.288Z,22.78
2016-04-07T03:18:29.291Z,22.67
2016-04-07T03:19:29.293Z,22.73
2016-04-07T03:20:29.313Z,22.63
2016-04-07T03:21:29.315Z,22.7
2016-04-07T03:22:29.318Z,22.73
2016-04-07T03:23:29.336Z,22.71
2016-04-07T03:24:29.339Z,22.67
2016-04-07T03:25:29.357Z,22.71
2016-04-07T03:26:29.345Z,22.71
2016-04-07T03:27:29.347Z,22.66
2016-04-07T03:28:29.365Z,22.75
2016-04-07T03:29:29.400Z,22.7
2016-04-07T03:30:29.386Z,22.71
2016-04-07T03:31:29.233Z,22.7
2016-04-07T03:32:29.376Z,22.76
2016-04-07T03:33:29.395Z,22.75
2016-04-07T03:34:29.397Z,22.75
2016-04-07T03:35:29.400Z,22.66
2016-04-07T03:36:29.403Z,22.7
2016-04-07T03:37:29.406Z,22.67
2016-04-07T03:38:29.424Z,22.7
2016-04-07T03:39:29.427Z,22.7
2016-04-07T03:40:29.445Z,22.67
2016-04-07T03:41:29.463Z,22.69
2016-04-07T03:42:29.466Z,22.7
2016-04-07T03:43:29.437Z,22.69
2016-04-07T03:44:29.456Z,22.64
2016-04-07T03:45:29.474Z,22.67
2016-04-07T03:46:29.477Z,22.75
2016-04-07T03:47:29.480Z,22.69
2016-04-07T03:48:29.496Z,22.69
2016-04-07T03:49:29.499Z,22.6
2016-04-07T03:50:29.502Z,22.66
2016-04-07T03:51:29.505Z,22.73
2016-04-07T03:52:29.507Z,22.67
2016-04-07T03:53:29.527Z,22.64
2016-04-07T03:54:29.514Z,22.71
2016-04-07T03:55:29.548Z,22.64
2016-04-07T03:56:29.550Z,22.6
2016-04-07T03:57:29.537Z,22.69
2016-04-07T03:58:29.587Z,22.7
2016-04-07T03:59:29.558Z,22.69
2016-04-07T04:00:29.561Z,22.71
2016-04-07T04:01:29.579Z,22.54
2016-04-07T04:02:29.581Z,22.6
2016-04-07T04:03:29.600Z,22.61
2016-04-07T04:04:29.619Z,22.6
2016-04-07T04:05:29.606Z,22.67
2016-04-07T04:06:29.608Z,22.57
2016-04-07T04:07:29.611Z,22.61
2016-04-07T04:08:29.614Z,22.52
2016-04-07T04:09:29.617Z,22.6
2016-04-07T04:10:29.619Z,22.59
2016-04-07T04:11:29.622Z,22.64
2016-04-07T04:12:29.625Z,22.55
2016-04-07T04:13:29.643Z,22.63
2016-04-07T04:14:29.646Z,22.55
2016-04-07T04:15:29.664Z,22.6
2016-04-07T04:16:29.666Z,22.59
2016-04-07T04:17:29.669Z,22.57
2016-04-07T04:18:29.672Z,22.63
2016-04-07T04:19:29.519Z,22.6
2016-04-07T04:20:29.693Z,22.63
2016-04-07T04:21:29.696Z,22.63
2016-04-07T04:22:29.699Z,22.6
2016-04-07T04:23:29.701Z,22.6
2016-04-07T04:24:29.704Z,22.57
2016-04-07T04:25:29.707Z,22.55
2016-04-07T04:26:29.724Z,22.55
2016-04-07T04:27:29.759Z,22.59
2016-04-07T04:28:29.730Z,22.6
2016-04-07T04:29:29.749Z,22.6
2016-04-07T04:30:29.750Z,22.55
2016-04-07T04:31:29.753Z,22.63
2016-04-07T04:32:29.756Z,22.61
2016-04-07T04:33:29.775Z,22.6
2016-04-07T04:34:29.778Z,22.59
2016-04-07T04:35:29.795Z,22.55
2016-04-07T04:36:29.783Z,22.61
2016-04-07T04:37:29.800Z,22.63
2016-04-07T04:38:29.788Z,22.59
2016-04-07T04:39:29.822Z,22.55
2016-04-07T04:40:29.809Z,22.6
2016-04-07T04:41:29.828Z,22.6
2016-04-07T04:42:29.830Z,22.6
2016-04-07T04:43:29.832Z,22.59
2016-04-07T04:44:29.835Z,22.6
2016-04-07T04:45:29.838Z,22.57
2016-04-07T04:46:29.857Z,22.61
2016-04-07T04:47:29.859Z,22.55
2016-04-07T04:48:29.862Z,22.6
2016-04-07T04:49:29.880Z,22.59
2016-04-07T04:50:29.868Z,22.6
2016-04-07T04:51:29.885Z,22.6
2016-04-07T04:52:29.888Z,22.52
2016-04-07T04:53:29.735Z,22.63
2016-04-07T04:54:29.894Z,22.55
2016-04-07T04:55:29.912Z,22.59
2016-04-07T04:56:29.930Z,22.59
2016-04-07T04:57:29.918Z,22.6
2016-04-07T04:58:29.920Z,22.64
2016-04-07T04:59:29.954Z,22.63
2016-04-07T05:00:29.940Z,22.63
2016-04-07T05:01:29.943Z,22.55
2016-04-07T05:02:29.962Z,22.63
2016-04-07T05:03:29.965Z,22.59
2016-04-07T05:04:29.967Z,22.59
2016-04-07T05:05:29.970Z,22.6
2016-04-07T05:06:29.973Z,22.57
2016-04-07T05:07:30.007Z,22.57
2016-04-07T05:08:29.978Z,22.6
2016-04-07T05:09:29.997Z,22.6
2016-04-07T05:10:30.014Z,22.6
2016-04-07T05:11:30.017Z,22.63
2016-04-07T05:12:30.020Z,22.59
2016-04-07T05:13:30.022Z,22.59
2016-04-07T05:14:30.011Z,22.6
2016-04-07T05:15:30.028Z,22.59
2016-04-07T05:16:30.031Z,22.61
2016-04-07T05:17:30.033Z,22.61
2016-04-07T05:18:30.052Z,22.55
2016-04-07T05:19:30.071Z,22.59
2016-04-07T05:20:30.057Z,22.55
2016-04-07T05:21:30.076Z,22.59
2016-04-07T05:22:30.079Z,22.64
2016-04-07T05:23:30.081Z,22.59
2016-04-07T05:24:30.146Z,22.55
2016-04-07T05:25:30.086Z,22.6
2016-04-07T05:26:30.089Z,22.64
2016-04-07T05:27:30.107Z,22.54
2016-04-07T05:28:29.954Z,22.59
2016-04-07T05:29:30.129Z,22.55
2016-04-07T05:30:30.131Z,22.54
2016-04-07T05:31:30.134Z,22.52
2016-04-07T05:32:30.136Z,22.64
2016-04-07T05:33:30.154Z,22.6
2016-04-07T05:34:30.157Z,22.55
2016-04-07T05:35:30.160Z,22.59
2016-04-07T05:36:30.162Z,22.57
2016-04-07T05:37:30.181Z,22.55
2016-04-07T05:38:30.168Z,22.51
2016-04-07T05:39:30.187Z,22.55
2016-04-07T05:40:30.189Z,22.59
2016-04-07T05:41:30.208Z,22.54
2016-04-07T05:42:30.194Z,22.6
2016-04-07T05:43:30.213Z,22.54
2016-04-07T05:44:30.216Z,22.51
2016-04-07T05:45:30.219Z,22.6
2016-04-07T05:46:30.221Z,22.54
2016-04-07T05:47:30.239Z,22.61
2016-04-07T05:48:30.227Z,22.52
2016-04-07T05:49:30.245Z,22.54
2016-04-07T05:50:30.263Z,22.52
2016-04-07T05:51:30.250Z,22.54
2016-04-07T05:52:30.253Z,22.59
2016-04-07T05:53:30.271Z,22.55
2016-04-07T05:54:30.290Z,22.55
2016-04-07T05:55:30.293Z,22.6
2016-04-07T05:56:30.280Z,22.59
2016-04-07T05:57:30.298Z,22.57
2016-04-07T05:58:30.300Z,22.51
2016-04-07T05:59:30.303Z,22.55
2016-04-07T06:00:30.306Z,22.57
2016-04-07T06:01:30.323Z,22.52
2016-04-07T06:02:30.326Z,22.61
2016-04-07T06:03:30.329Z,22.61
2016-04-07T06:04:30.332Z,22.59
2016-04-07T06:05:30.350Z,22.54
2016-04-07T06:06:30.337Z,22.61
2016-04-07T06:07:30.355Z,22.54
2016-04-07T06:08:30.347Z,22.63
2016-04-07T06:09:30.350Z,22.57
2016-04-07T06:10:30.384Z,22.64
2016-04-07T06:11:30.372Z,22.55
2016-04-07T06:12:30.374Z,22.57
2016-04-07T06:13:30.392Z,22.55
2016-04-07T06:14:30.395Z,22.59
2016-04-07T06:15:30.397Z,22.61
2016-04-07T06:16:30.416Z,22.54
2016-04-07T06:17:30.419Z,22.59
2016-04-07T06:18:30.405Z,22.57
2016-04-07T06:19:30.424Z,22.61
2016-04-07T06:20:30.427Z,22.66
2016-04-07T06:21:30.446Z,22.59
2016-04-07T06:22:30.448Z,22.63
2016-04-07T06:23:30.451Z,22.52
2016-04-07T06:24:30.468Z,22.59
2016-04-07T06:25:30.471Z,22.57
2016-04-07T06:26:30.473Z,22.63
2016-04-07T06:27:30.476Z,22.64
2016-04-07T06:28:30.479Z,22.57
2016-04-07T06:29:30.482Z,22.59
2016-04-07T06:30:30.484Z,22.55
2016-04-07T06:31:30.503Z,22.55
2016-04-07T06:32:30.521Z,22.61
2016-04-07T06:33:30.508Z,22.57
2016-04-07T06:34:30.526Z,22.57
2016-04-07T06:35:30.514Z,22.6
2016-04-07T06:36:30.532Z,22.57
2016-04-07T06:37:30.378Z,22.59
2016-04-07T06:38:30.537Z,22.6
2016-04-07T06:39:30.539Z,22.61
2016-04-07T06:40:30.559Z,22.61
2016-04-07T06:41:30.561Z,22.59
2016-04-07T06:42:30.564Z,22.57
2016-04-07T06:43:30.583Z,22.59
2016-04-07T06:44:30.586Z,22.61
2016-04-07T06:45:30.588Z,22.6
2016-04-07T06:46:30.590Z,22.6
2016-04-07T06:47:30.593Z,22.61
2016-04-07T06:48:30.439Z,22.61
2016-04-07T06:49:30.614Z,22.64
2016-04-07T06:50:30.617Z,22.61
2016-04-07T06:51:30.651Z,22.7
2016-04-07T06:52:30.638Z,22.59
2016-04-07T06:53:30.640Z,22.55
2016-04-07T06:54:30.659Z,22.69
2016-04-07T06:55:30.645Z,22.54
2016-04-07T06:56:30.664Z,22.67
2016-04-07T06:57:30.667Z,22.66
2016-04-07T06:58:30.670Z,22.7
2016-04-07T06:59:30.688Z,22.7
2016-04-07T07:00:30.675Z,22.7
2016-04-07T07:01:30.693Z,22.64
2016-04-07T07:02:30.695Z,22.7
2016-04-07T07:03:30.714Z,22.75
2016-04-07T07:04:30.717Z,22.67
2016-04-07T07:05:30.704Z,22.75
2016-04-07T07:06:30.723Z,22.73
2016-04-07T07:07:30.725Z,22.67
2016-04-07T07:08:30.728Z,22.73
2016-04-07T07:09:30.731Z,22.73
2016-04-07T07:10:30.748Z,22.76
2016-04-07T07:11:30.767Z,22.73
2016-04-07T07:12:30.769Z,22.7
2016-04-07T07:13:30.756Z,22.76
2016-04-07T07:14:30.759Z,22.82
2016-04-07T07:15:30.778Z,22.88
2016-04-07T07:16:30.781Z,22.82
2016-04-07T07:17:30.783Z,22.84
2016-04-07T07:18:30.802Z,22.84
2016-04-07T07:19:30.788Z,22.85
2016-04-07T07:20:30.807Z,22.82
2016-04-07T07:21:30.810Z,22.82
2016-04-07T07:22:30.812Z,22.78
2016-04-07T07:23:30.815Z,22.89
2016-04-07T07:24:30.707Z,22.84
2016-04-07T07:25:30.835Z,22.89
2016-04-07T07:26:30.838Z,22.89
2016-04-07T07:27:30.841Z,22.88
2016-04-07T07:28:30.844Z,22.91
2016-04-07T07:29:30.862Z,22.89
2016-04-07T07:30:30.881Z,22.91
2016-04-07T07:31:30.867Z,22.92
2016-04-07T07:32:31.027Z,22.89
2016-04-07T07:33:30.879Z,22.88
2016-04-07T07:34:30.881Z,22.99
2016-04-07T07:35:30.899Z,22.96
2016-04-07T07:36:30.902Z,22.96
2016-04-07T07:37:30.921Z,22.92
2016-04-07T07:38:30.908Z,22.91
2016-04-07T07:39:31.056Z,22.86
2016-04-07T07:40:30.918Z,22.96
2016-04-07T07:41:30.920Z,22.96
2016-04-07T07:42:30.892Z,23
2016-04-07T07:43:31.098Z,22.92
2016-04-07T07:44:30.944Z,23
2016-04-07T07:45:30.963Z,22.99
2016-04-07T07:46:31.012Z,22.89
2016-04-07T07:47:30.969Z,22.79
2016-04-07T07:48:30.722Z,22.91
2016-04-07T07:49:30.833Z,22.91
2016-04-07T07:50:31.008Z,22.92
2016-04-07T07:51:30.994Z,22.88
2016-04-07T07:52:30.997Z,22.91
2016-04-07T07:53:31.015Z,22.91
2016-04-07T07:54:31.080Z,22.88
2016-04-07T07:55:31.021Z,22.92
2016-04-07T07:56:31.023Z,23.01
2016-04-07T07:57:31.026Z,22.78
2016-04-07T07:58:31.044Z,22.89
2016-04-07T07:59:31.063Z,22.88
2016-04-07T08:00:31.050Z,22.96
2016-04-07T08:01:31.068Z,22.91
2016-04-07T08:02:31.055Z,22.59
2016-04-07T08:03:31.074Z,22.67
2016-04-07T08:04:31.076Z,22.61
2016-04-07T08:05:31.095Z,22.73
2016-04-07T08:06:31.097Z,22.73
2016-04-07T08:07:31.100Z,22.75
2016-04-07T08:08:31.103Z,22.76
2016-04-07T08:09:31.106Z,22.86
2016-04-07T08:10:31.124Z,22.66
2016-04-07T08:11:31.111Z,22.79
2016-04-07T08:12:31.114Z,22.75
2016-04-07T08:13:31.131Z,22.75
2016-04-07T08:14:31.134Z,22.86
2016-04-07T08:15:31.137Z,22.88
2016-04-07T08:16:31.156Z,22.85
2016-04-07T08:17:31.159Z,22.85
2016-04-07T08:18:31.177Z,22.96
2016-04-07T08:19:31.164Z,22.85
2016-04-07T08:20:31.213Z,22.82
2016-04-07T08:21:31.216Z,22.75
2016-04-07T08:22:31.188Z,22.84
2016-04-07T08:23:31.190Z,22.82
2016-04-07T08:24:31.255Z,22.92
2016-04-07T08:25:31.210Z,22.91
2016-04-07T08:26:31.213Z,22.92
2016-04-07T08:27:31.216Z,22.75
2016-04-07T08:28:31.235Z,22.84
2016-04-07T08:29:31.722Z,22.92
2016-04-07T08:30:31.225Z,22.92
2016-04-07T08:31:31.243Z,22.89
2016-04-07T08:32:31.246Z,22.85
2016-04-07T08:33:31.248Z,22.82
2016-04-07T08:34:31.251Z,22.91
2016-04-07T08:35:31.268Z,22.94
2016-04-07T08:36:31.288Z,22.92
2016-04-07T08:37:31.292Z,22.71
2016-04-07T08:38:31.278Z,22.85
2016-04-07T08:39:31.328Z,22.94
2016-04-07T08:40:31.299Z,22.89
2016-04-07T08:41:31.302Z,22.76
2016-04-07T08:42:31.304Z,22.69
2016-04-07T08:43:31.307Z,22.69
2016-04-07T08:44:31.326Z,22.81
2016-04-07T08:45:31.329Z,22.89
2016-04-07T08:46:31.347Z,22.85
2016-04-07T08:47:31.334Z,22.89
2016-04-07T08:48:31.352Z,22.89
2016-04-07T08:49:31.370Z,22.96
2016-04-07T08:50:31.357Z,22.96
2016-04-07T08:51:31.390Z,22.97
2016-04-07T08:52:31.378Z,22.91
2016-04-07T08:53:31.381Z,22.91
2016-04-07T08:54:31.384Z,22.92
2016-04-07T08:55:31.386Z,22.89
2016-04-07T08:56:31.404Z,22.85
2016-04-07T08:57:31.407Z,22.55
2016-04-07T08:58:31.425Z,22.57
2016-04-07T08:59:31.428Z,22.75
2016-04-07T09:00:31.431Z,22.7
2016-04-07T09:01:31.418Z,22.76
2016-04-07T09:02:31.437Z,22.67
2016-04-07T09:03:31.423Z,22.6
2016-04-07T09:04:31.426Z,22.75
2016-04-07T09:05:31.460Z,22.59
2016-04-07T09:06:31.447Z,22.59
2016-04-07T09:07:31.449Z,22.75
2016-04-07T09:08:31.780Z,22.92
2016-04-07T09:09:31.471Z,22.88
2016-04-07T09:10:31.474Z,22.97
2016-04-07T09:11:31.476Z,22.97
2016-04-07T09:12:31.495Z,23.04
2016-04-07T09:13:31.482Z,23.09
2016-04-07T09:14:31.500Z,23.03
2016-04-07T09:15:31.502Z,23.09
2016-04-07T09:16:31.521Z,23.12
2016-04-07T09:17:31.524Z,23.15
2016-04-07T09:18:31.526Z,23.18
2016-04-07T09:19:31.529Z,23.19
2016-04-07T09:20:31.547Z,23.21
2016-04-07T09:21:31.566Z,23.14
2016-04-07T09:22:31.577Z,23.29
2016-04-07T09:23:31.616Z,23.25
2016-04-07T09:24:31.530Z,23.26
2016-04-07T09:25:32.319Z,23.24
2016-04-07T09:26:31.748Z,23.28
2016-04-07T09:27:31.772Z,23.26
2016-04-07T09:28:31.820Z,23.37
2016-04-07T09:29:31.835Z,23.32
2016-04-07T09:30:31.836Z,23.37
2016-04-07T09:31:31.852Z,23.38
2016-04-07T09:32:31.877Z,23.34
2016-04-07T09:33:31.900Z,23.34
2016-04-07T09:34:31.907Z,23.41
2016-04-07T09:35:31.914Z,23.38
2016-04-07T09:36:31.922Z,23.42
2016-04-07T09:37:31.943Z,23.4
2016-04-07T09:38:31.948Z,23.42
2016-04-07T09:39:31.953Z,23.44
2016-04-07T09:40:31.973Z,23.4
2016-04-07T09:41:31.962Z,23.41
2016-04-07T09:42:31.981Z,23.42
2016-04-07T09:43:31.984Z,23.38
2016-04-07T09:44:31.988Z,23.37
2016-04-07T09:45:31.991Z,23.38
2016-04-07T09:46:31.994Z,23.41
2016-04-07T09:47:32.013Z,23.38
2016-04-07T09:48:32.032Z,23.42
2016-04-07T09:49:32.097Z,23.38
2016-04-07T09:50:32.038Z,23.37
2016-04-07T09:51:32.040Z,23.35
2016-04-07T09:52:32.043Z,23.42
2016-04-07T09:53:32.045Z,23.42
2016-04-07T09:54:32.048Z,23.44
2016-04-07T09:55:32.066Z,23.42
2016-04-07T09:56:32.085Z,23.4
2016-04-07T09:57:32.102Z,23.44
2016-04-07T09:58:32.121Z,23.4
2016-04-07T09:59:32.108Z,23.4
2016-04-07T10:00:32.110Z,23.38
2016-04-07T10:01:32.098Z,23.42
2016-04-07T10:02:32.115Z,23.44
2016-04-07T10:03:32.118Z,23.41
2016-04-07T10:04:32.121Z,23.44
2016-04-07T10:05:32.156Z,23.4
2016-04-07T10:06:32.159Z,23.38
2016-04-07T10:07:32.162Z,23.52
2016-04-07T10:08:32.163Z,23.56
2016-04-07T10:09:32.181Z,23.57
2016-04-07T10:10:32.184Z,23.55
2016-04-07T10:11:32.187Z,23.45
2016-04-07T10:12:32.174Z,23.5
2016-04-07T10:13:32.177Z,23.56
2016-04-07T10:14:32.211Z,23.53
2016-04-07T10:15:32.197Z,23.55
2016-04-07T10:16:32.201Z,23.48
2016-04-07T10:17:32.219Z,23.47
2016-04-07T10:18:32.206Z,23.45
2016-04-07T10:19:32.225Z,23.5
2016-04-07T10:20:32.243Z,23.53
2016-04-07T10:21:32.246Z,23.53
2016-04-07T10:22:32.248Z,23.53
2016-04-07T10:23:32.252Z,23.55
2016-04-07T10:24:32.254Z,23.55
2016-04-07T10:25:32.116Z,23.52
2016-04-07T10:26:32.338Z,23.52
2016-04-07T10:27:32.293Z,23.52
2016-04-07T10:28:32.296Z,23.48
2016-04-07T10:29:32.313Z,23.47
2016-04-07T10:30:32.301Z,23.53
2016-04-07T10:31:32.303Z,23.53
2016-04-07T10:32:32.337Z,23.55
2016-04-07T10:33:32.324Z,23.53
2016-04-07T10:34:32.359Z,23.53
2016-04-07T10:35:32.330Z,23.55
2016-04-07T10:36:32.348Z,23.52
2016-04-07T10:37:32.351Z,23.53
2016-04-07T10:38:32.353Z,23.5
2016-04-07T10:39:32.387Z,23.56
2016-04-07T10:40:32.389Z,23.57
2016-04-07T10:41:32.392Z,23.56
2016-04-07T10:42:32.395Z,23.53
2016-04-07T10:43:32.383Z,23.53
2016-04-07T10:44:32.401Z,23.56
2016-04-07T10:45:32.404Z,23.5
2016-04-07T10:46:32.438Z,23.52
2016-04-07T10:47:32.441Z,23.59
2016-04-07T10:48:32.428Z,23.57
2016-04-07T10:49:32.430Z,23.53
2016-04-07T10:50:32.449Z,23.6
2016-04-07T10:51:32.452Z,23.6
2016-04-07T10:52:32.470Z,23.6
2016-04-07T10:53:32.457Z,23.63
2016-04-07T10:54:32.460Z,23.55
2016-04-07T10:55:32.524Z,23.55
2016-04-07T10:56:32.480Z,23.55
2016-04-07T10:57:32.483Z,23.55
2016-04-07T10:58:32.485Z,23.56
2016-04-07T10:59:32.504Z,23.59
2016-04-07T11:00:32.506Z,23.55
2016-04-07T11:01:32.524Z,23.56
2016-04-07T11:02:32.543Z,23.53
2016-04-07T11:03:32.562Z,23.57
2016-04-07T11:04:32.533Z,23.55
2016-04-07T11:05:32.551Z,23.59
2016-04-07T11:06:32.554Z,23.64
2016-04-07T11:07:32.556Z,23.62
2016-04-07T11:08:32.575Z,23.59
2016-04-07T11:09:32.592Z,23.7
2016-04-07T11:10:32.595Z,23.63
2016-04-07T11:11:32.598Z,23.63
2016-04-07T11:12:32.586Z,23.66
2016-04-07T11:13:32.620Z,23.67
2016-04-07T11:14:32.607Z,23.67
2016-04-07T11:15:32.625Z,23.72
2016-04-07T11:16:32.628Z,23.6
2016-04-07T11:17:32.646Z,23.66
2016-04-07T11:18:32.633Z,23.62
2016-04-07T11:19:32.745Z,23.66
2016-04-07T11:20:32.670Z,23.75
2016-04-07T11:21:32.658Z,23.75
2016-04-07T11:22:32.675Z,23.63
2016-04-07T11:23:32.694Z,23.67
2016-04-07T11:24:32.696Z,23.72
2016-04-07T11:25:32.683Z,23.71
2016-04-07T11:26:32.701Z,23.74
2016-04-07T11:27:32.704Z,23.72
2016-04-07T11:28:32.551Z,23.7
2016-04-07T11:29:32.710Z,23.62
2016-04-07T11:30:32.728Z,23.66
2016-04-07T11:31:32.730Z,23.67
2016-04-07T11:32:32.733Z,23.72
2016-04-07T11:33:32.752Z,23.71
2016-04-07T11:34:32.754Z,23.74
2016-04-07T11:35:32.616Z,23.74
2016-04-07T11:36:32.776Z,23.67
2016-04-07T11:37:32.778Z,23.67
2016-04-07T11:38:32.781Z,23.7
2016-04-07T11:39:32.784Z,23.6
2016-04-07T11:40:32.802Z,23.67
2016-04-07T11:41:32.804Z,23.63
2016-04-07T11:42:32.807Z,23.67
2016-04-07T11:43:32.810Z,23.7
2016-04-07T11:44:32.812Z,23.63
2016-04-07T11:45:32.831Z,23.7
2016-04-07T11:46:32.850Z,23.75
2016-04-07T11:47:32.836Z,23.75
2016-04-07T11:48:32.855Z,23.67
2016-04-07T11:49:32.858Z,23.63
2016-04-07T11:50:32.891Z,23.75
2016-04-07T11:51:32.863Z,23.62
2016-04-07T11:52:32.881Z,23.74
2016-04-07T11:53:32.883Z,23.6
2016-04-07T11:54:32.886Z,23.7
2016-04-07T11:55:32.733Z,23.66
2016-04-07T11:56:32.908Z,23.7
2016-04-07T11:57:32.910Z,23.64
2016-04-07T11:58:32.913Z,23.71
2016-04-07T11:59:32.931Z,23.71
2016-04-07T12:00:32.933Z,23.7
2016-04-07T12:01:32.952Z,23.6
2016-04-07T12:02:32.955Z,23.63
2016-04-07T12:03:32.957Z,23.7
2016-04-07T12:04:32.960Z,23.67
2016-04-07T12:05:32.979Z,23.66
2016-04-07T12:06:32.981Z,23.67
2016-04-07T12:07:32.999Z,23.6
2016-04-07T12:08:32.987Z,23.75
2016-04-07T12:09:33.004Z,23.64
2016-04-07T12:10:33.007Z,23.71
2016-04-07T12:11:33.025Z,23.71
2016-04-07T12:12:33.028Z,23.81
2016-04-07T12:13:33.031Z,23.75
2016-04-07T12:14:33.050Z,23.78
2016-04-07T12:15:33.053Z,23.79
2016-04-07T12:16:33.039Z,23.78
2016-04-07T12:17:33.042Z,23.79
2016-04-07T12:18:33.138Z,23.78
2016-04-07T12:19:33.078Z,23.82
2016-04-07T12:20:33.081Z,23.79
2016-04-07T12:21:33.083Z,23.84
2016-04-07T12:22:33.086Z,23.84
2016-04-07T12:23:33.104Z,23.87
2016-04-07T12:24:33.107Z,23.87
2016-04-07T12:25:33.157Z,23.89
2016-04-07T12:26:33.128Z,23.97
2016-04-07T12:27:33.131Z,23.97
2016-04-07T12:28:33.149Z,23.81
2016-04-07T12:29:33.136Z,23.89
2016-04-07T12:30:33.155Z,23.87
2016-04-07T12:31:33.157Z,23.93
2016-04-07T12:32:33.176Z,23.93
2016-04-07T12:33:33.162Z,23.99
2016-04-07T12:34:33.181Z,23.96
2016-04-07T12:35:33.215Z,23.96
2016-04-07T12:36:33.202Z,23.94
2016-04-07T12:37:33.205Z,23.94
2016-04-07T12:38:33.207Z,23.97
2016-04-07T12:39:33.210Z,23.93
2016-04-07T12:40:33.228Z,23.96
2016-04-07T12:41:33.231Z,24.04
2016-04-07T12:42:33.375Z,23.99
2016-04-07T12:43:33.253Z,23.97
2016-04-07T12:44:33.256Z,23.93
2016-04-07T12:45:33.273Z,23.99
2016-04-07T12:46:33.261Z,23.94
2016-04-07T12:47:33.278Z,24.04
2016-04-07T12:48:33.281Z,23.93
2016-04-07T12:49:33.299Z,24.07
2016-04-07T12:50:33.302Z,24.02
2016-04-07T12:51:33.320Z,24.03
2016-04-07T12:52:33.307Z,24.04
2016-04-07T12:53:33.311Z,23.94
2016-04-07T12:54:33.328Z,23.93
2016-04-07T12:55:33.441Z,23.94